Time;durP1;ratioP1;P1;durP2;ratioP2;P2;SDS_P1;SDS_P2;PMS_P1;PMS_P2;Temp;Humidity;BMP_temperature;BMP_pressure;BME280_temperature;BME280_humidity;BME280_pressure;Samples;Min_cycle;Max_cycle;Signal;HPM_P1;HPM_P2
2022/07/09 01:03:36;;;;;;;1.47;1.37;;;;;;;22.27;60.06;98245.19;6099291;23;20186;-93
2022/07/09 01:06:03;;;;;;;1.30;1.20;;;;;;;23.27;59.96;98419.03;6119638;23;20152;-92
2022/07/09 01:08:30;;;;;;;2.07;1.20;;;;;;;22.60;59.73;98323.31;6120352;23;20239;-91
2022/07/09 01:10:57;;;;;;;1.40;1.23;;;;;;;22.60;59.99;98307.06;6121061;23;20186;-92
2022/07/09 01:13:24;;;;;;;2.03;1.33;;;;;;;22.42;59.95;98276.50;6120004;23;20172;-92
2022/07/09 01:15:50;;;;;;;2.90;1.20;;;;;;;23.27;60.42;98426.72;6072446;23;20156;-92
2022/07/09 01:18:18;;;;;;;1.93;1.57;;;;;;;22.99;60.01;98388.88;6120688;23;20179;-92
2022/07/09 01:20:45;;;;;;;1.50;1.40;;;;;;;22.33;60.05;98260.78;6096330;23;20203;-92
2022/07/09 01:23:11;;;;;;;1.60;1.50;;;;;;;22.62;60.04;98314.00;6095734;23;20190;-92
2022/07/09 01:25:39;;;;;;;1.60;1.50;;;;;;;22.93;60.03;98365.59;6119936;23;20397;-91
2022/07/09 01:28:07;;;;;;;1.37;1.27;;;;;;;22.57;60.01;98306.97;6096020;23;20160;-91
2022/07/09 01:30:35;;;;;;;1.40;1.30;;;;;;;22.62;59.89;98316.53;6095973;23;20223;-93
2022/07/09 01:33:01;;;;;;;1.50;1.40;;;;;;;22.89;60.10;98357.72;6072361;23;20159;-92
2022/07/09 01:35:28;;;;;;;1.57;1.37;;;;;;;22.30;59.88;98258.09;6095410;23;20211;-93
2022/07/09 01:37:55;;;;;;;1.97;1.30;;;;;;;22.53;59.91;98313.63;6120596;23;20166;-92
2022/07/09 01:40:23;;;;;;;1.40;1.30;;;;;;;22.66;60.03;98314.97;6095571;23;20190;-92
2022/07/09 01:42:49;;;;;;;1.83;1.43;;;;;;;23.03;60.42;98392.41;6071990;23;20160;-92
2022/07/09 01:45:16;;;;;;;1.43;1.30;;;;;;;22.63;59.84;98310.63;6071570;23;20196;-92
2022/07/09 01:47:43;;;;;;;1.57;1.47;;;;;;;22.19;59.80;98227.75;6095902;23;20164;-92
2022/07/09 01:50:09;;;;;;;1.43;1.33;;;;;;;22.40;59.88;98267.88;6095292;23;20183;-92
2022/07/09 01:52:36;;;;;;;1.30;1.20;;;;;;;22.61;59.94;98291.75;6095843;23;20167;-92
2022/07/09 01:55:03;;;;;;;1.73;1.40;;;;;;;23.31;59.94;98410.59;6095524;23;20152;-92
2022/07/09 01:57:30;;;;;;;1.67;1.57;;;;;;;22.55;60.06;98276.16;6072046;23;20163;-92
2022/07/09 01:59:56;;;;;;;1.27;1.20;;;;;;;23.26;60.07;98399.31;6120264;23;20187;-92
2022/07/09 02:02:23;;;;;;;1.40;1.30;;;;;;;23.08;60.26;98380.66;6095626;23;20163;-92
2022/07/09 02:04:50;;;;;;;1.50;1.40;;;;;;;22.93;59.48;98345.06;6106916;23;20190;-92
2022/07/09 02:07:16;;;;;;;1.30;1.20;;;;;;;22.73;59.94;98325.50;6120262;23;20163;-92
2022/07/09 02:09:43;;;;;;;1.30;1.20;;;;;;;22.57;60.38;98273.66;6095627;23;20231;-92
2022/07/09 02:12:10;;;;;;;1.40;1.30;;;;;;;22.56;59.91;98269.34;6119398;23;20160;-91
2022/07/09 02:14:37;;;;;;;1.40;1.30;;;;;;;22.86;59.58;98319.16;6119641;23;20148;-92
2022/07/09 02:17:04;;;;;;;1.40;1.30;;;;;;;22.67;59.99;98297.09;6120195;23;20170;-93
2022/07/09 02:19:30;;;;;;;1.27;1.17;;;;;;;23.28;59.73;98383.16;6119394;23;20191;-92
2022/07/09 02:21:57;;;;;;;1.17;1.17;;;;;;;23.67;60.04;98455.53;6119977;23;20156;-92
2022/07/09 02:24:24;;;;;;;2.00;1.50;;;;;;;22.53;60.10;98271.81;6120207;23;20189;-92
2022/07/09 02:26:50;;;;;;;1.47;1.30;;;;;;;23.26;60.02;98389.94;6119997;23;20159;-92
2022/07/09 02:29:17;;;;;;;1.53;1.40;;;;;;;23.27;59.94;98393.38;6120196;23;20184;-93
2022/07/09 02:31:43;;;;;;;1.40;1.30;;;;;;;22.20;60.13;98215.03;6119776;23;20171;-92
2022/07/09 02:34:10;;;;;;;1.43;1.30;;;;;;;22.66;60.17;98299.59;6119389;23;20180;-92
2022/07/09 02:36:37;;;;;;;1.30;1.20;;;;;;;22.90;60.21;98321.91;6095100;23;20170;-92
2022/07/09 02:39:04;;;;;;;1.50;1.40;;;;;;;22.51;60.06;98273.41;6119264;23;20172;-92
2022/07/09 02:41:30;;;;;;;1.03;1.03;;;;;;;22.94;59.69;98341.69;6095414;23;20159;-92
2022/07/09 02:43:57;;;;;;;1.40;1.30;;;;;;;22.91;59.95;98325.31;6119823;23;20245;-92
2022/07/09 02:46:23;;;;;;;1.40;1.30;;;;;;;22.52;59.94;98268.34;6119263;23;20152;-92
2022/07/09 02:48:50;;;;;;;1.57;1.47;;;;;;;22.92;59.90;98322.81;6119072;23;20180;-92
2022/07/09 02:51:17;;;;;;;1.50;1.40;;;;;;;22.86;59.99;98316.59;6095611;23;20224;-92
2022/07/09 02:53:44;;;;;;;1.40;1.30;;;;;;;23.44;60.16;98423.03;6119002;23;20178;-92
2022/07/09 02:56:11;;;;;;;1.50;1.40;;;;;;;22.60;59.63;98279.78;6120111;23;20148;-92
2022/07/09 02:58:38;;;;;;;1.40;1.30;;;;;;;22.73;59.35;98281.06;6118813;23;20167;-93
2022/07/09 03:01:05;;;;;;;1.40;1.30;;;;;;;23.12;60.12;98375.69;6118790;23;20199;-92
2022/07/09 03:03:35;;;;;;;1.30;1.20;;;;;;;22.90;59.96;98326.13;6095177;23;20155;-91
2022/07/09 03:06:08;;;;;;;1.20;1.20;;;;;;;22.92;60.00;98322.81;6095175;23;20200;-92
2022/07/09 03:08:35;;;;;;;1.53;1.43;;;;;;;23.21;59.96;98372.59;6119979;23;20196;-92
2022/07/09 03:11:03;;;;;;;1.23;1.13;;;;;;;22.05;60.00;98177.75;6120447;23;20175;-90
2022/07/09 03:13:30;;;;;;;1.50;1.40;;;;;;;23.24;59.77;98385.56;6095043;23;20148;-92
2022/07/09 03:15:56;;;;;;;1.97;1.30;;;;;;;22.57;59.27;98287.34;6119963;23;20155;-92
2022/07/09 03:18:23;;;;;;;1.43;1.30;;;;;;;23.27;60.17;98396.78;6119791;23;20163;-92
2022/07/09 03:20:50;;;;;;;1.60;1.50;;;;;;;23.26;59.96;98397.63;6095702;23;20186;-91
2022/07/09 03:23:17;;;;;;;1.60;1.50;;;;;;;22.73;59.84;98299.91;6120098;23;20160;-92
2022/07/09 03:25:44;;;;;;;1.10;1.10;;;;;;;22.61;60.07;98285.75;6071446;23;20152;-93
2022/07/09 03:28:10;;;;;;;1.40;1.30;;;;;;;22.72;60.25;98297.28;6095289;23;20159;-91
2022/07/09 03:30:37;;;;;;;1.30;1.20;;;;;;;22.37;59.78;98238.69;6095079;23;20188;-92
2022/07/09 03:33:04;;;;;;;1.33;1.23;;;;;;;23.27;60.00;98393.38;6071722;23;20374;-92
2022/07/09 03:35:30;;;;;;;1.60;1.50;;;;;;;21.94;59.84;98173.91;6119524;23;20156;-93
2022/07/09 03:37:57;;;;;;;1.30;1.20;;;;;;;22.20;60.21;98227.81;6095314;23;20155;-93
2022/07/09 03:40:24;;;;;;;1.40;1.30;;;;;;;22.85;60.04;98333.66;6119604;23;20188;-91
2022/07/09 03:42:50;;;;;;;1.30;1.20;;;;;;;23.22;59.43;98406.00;6120105;23;20176;-92
2022/07/09 03:45:17;;;;;;;1.30;1.20;;;;;;;22.86;60.14;98320.00;6094566;23;20220;-92
2022/07/09 03:47:43;;;;;;;1.40;1.30;;;;;;;22.71;59.99;98295.53;6120103;23;20152;-92
2022/07/09 03:50:11;;;;;;;1.67;1.40;;;;;;;22.63;59.55;98300.38;6121023;23;20179;-92
2022/07/09 03:52:38;;;;;;;1.20;1.10;;;;;;;22.46;59.75;98267.22;6073319;23;20196;-92
2022/07/09 03:55:05;;;;;;;1.13;1.13;;;;;;;23.26;59.92;98407.00;6096626;23;20593;-93
2022/07/09 03:57:32;;;;;;;1.30;1.20;;;;;;;22.54;59.80;98270.97;6073228;23;20156;-91
2022/07/09 03:59:59;;;;;;;1.40;1.30;;;;;;;22.50;60.04;98264.84;6096666;23;20191;-92
2022/07/09 04:02:25;;;;;;;1.40;1.30;;;;;;;22.23;60.20;98222.81;6121724;23;20164;-92
2022/07/09 04:04:56;;;;;;;1.50;1.40;;;;;;;23.20;60.06;98393.91;6072656;23;20202;-92
2022/07/09 04:07:23;;;;;;;1.40;1.30;;;;;;;23.27;59.99;98401.91;6121383;23;20159;-92
2022/07/09 04:09:49;;;;;;;1.33;1.23;;;;;;;22.89;60.07;98332.94;6096756;23;20215;-92
2022/07/09 04:12:16;;;;;;;1.77;1.30;;;;;;;22.89;59.96;98321.84;6096382;23;20152;-92
2022/07/09 04:14:42;;;;;;;1.20;1.10;;;;;;;22.17;59.88;98207.22;6120783;23;20179;-92
2022/07/09 04:17:09;;;;;;;1.30;1.20;;;;;;;22.58;59.95;98294.19;6121371;23;20167;-92
2022/07/09 04:19:36;;;;;;;1.40;1.30;;;;;;;22.91;60.08;98339.00;6121547;23;20206;-92
2022/07/09 04:22:03;;;;;;;1.40;1.30;;;;;;;22.89;59.96;98338.06;6121253;23;20163;-92
2022/07/09 04:24:31;;;;;;;1.40;1.30;;;;;;;23.28;59.89;98396.00;6097019;23;20203;-92
2022/07/09 04:26:58;;;;;;;1.30;1.20;;;;;;;22.17;60.08;98225.16;6121154;23;20166;-92
2022/07/09 04:29:25;;;;;;;1.10;1.10;;;;;;;22.52;60.32;98286.28;6121196;23;20195;-92
2022/07/09 04:31:51;;;;;;;1.33;1.27;;;;;;;22.31;60.00;98238.47;6120851;23;20168;-92
2022/07/09 04:34:18;;;;;;;1.53;1.30;;;;;;;22.93;60.07;98344.19;6096605;23;20176;-92
2022/07/09 04:36:45;;;;;;;1.30;1.20;;;;;;;23.27;60.33;98403.63;6121030;23;20168;-93
2022/07/09 04:39:12;;;;;;;1.63;1.40;;;;;;;22.78;60.08;98323.13;6096823;23;20172;-92
2022/07/09 04:41:39;;;;;;;1.40;1.30;;;;;;;22.55;60.02;98294.09;6120999;23;20160;-93
2022/07/09 04:44:07;;;;;;;1.40;1.30;;;;;;;22.51;59.87;98276.88;6096401;23;20194;-92
2022/07/09 04:46:33;;;;;;;1.47;1.30;;;;;;;23.25;60.33;98408.72;6073009;23;20183;-92
2022/07/09 04:49:00;;;;;;;1.17;1.17;;;;;;;22.72;59.79;98328.03;6120883;23;20172;-92
2022/07/09 04:51:27;;;;;;;1.40;1.30;;;;;;;22.62;60.15;98311.41;6096483;23;20269;-93
2022/07/09 04:53:53;;;;;;;1.30;1.20;;;;;;;23.24;60.13;98419.75;6095996;23;20179;-92
2022/07/09 04:56:20;;;;;;;1.40;1.30;;;;;;;22.82;59.80;98346.34;6122309;23;20205;-93
2022/07/09 04:58:52;;;;;;;1.30;1.20;;;;;;;21.84;59.86;98194.84;6073512;23;20180;-93
2022/07/09 05:01:20;;;;;;;1.40;1.30;;;;;;;22.27;60.65;98247.75;6096907;23;20187;-93
2022/07/09 05:03:47;;;;;;;1.60;1.50;;;;;;;22.52;60.17;98288.84;6073275;23;20175;-93
2022/07/09 05:06:17;;;;;;;1.30;1.20;;;;;;;22.95;60.13;98371.63;6073281;23;20152;-93
2022/07/09 05:08:44;;;;;;;2.13;1.40;;;;;;;22.13;60.09;98240.34;6074213;23;20188;-93
2022/07/09 05:11:11;;;;;;;1.40;1.30;;;;;;;22.04;59.88;98224.63;6073828;23;20152;-93
2022/07/09 05:13:45;;;;;;;1.33;1.23;;;;;;;21.90;59.97;98187.41;6074946;23;20160;-93
2022/07/09 05:16:12;;;;;;;1.87;1.30;;;;;;;22.25;59.85;98259.59;6096827;23;20166;-92
2022/07/09 05:18:39;;;;;;;1.50;1.40;;;;;;;23.44;60.06;98461.53;6049046;23;20160;-94
2022/07/09 05:21:06;;;;;;;1.30;1.20;;;;;;;22.55;60.04;98313.69;6097348;23;20164;-92
2022/07/09 05:23:33;;;;;;;1.40;1.30;;;;;;;21.85;59.85;98191.47;6097389;23;20171;-93
2022/07/09 05:26:00;;;;;;;1.57;1.30;;;;;;;23.04;60.26;98396.75;6097506;23;20191;-93
2022/07/09 05:28:27;;;;;;;1.40;1.30;;;;;;;22.15;59.70;98224.25;6072894;23;20160;-93
2022/07/09 05:30:54;;;;;;;1.50;1.30;;;;;;;22.49;60.20;98298.94;6097196;23;20206;-93
2022/07/09 05:33:40;;;;;;;1.43;1.33;;;;;;;21.83;59.93;98167.50;6081510;23;20192;-93
2022/07/09 05:36:07;;;;;;;1.40;1.30;;;;;;;21.52;60.05;98125.34;6073769;23;20163;-93
2022/07/09 05:38:34;;;;;;;1.40;1.30;;;;;;;21.53;59.97;98134.75;6073464;23;20216;-93
2022/07/09 05:41:01;;;;;;;1.40;1.30;;;;;;;22.08;59.79;98221.38;6097114;23;20171;-93
2022/07/09 05:43:28;;;;;;;1.30;1.20;;;;;;;22.32;60.02;98260.72;6073200;23;20184;-92
2022/07/09 05:45:54;;;;;;;1.33;1.23;;;;;;;22.57;60.11;98315.53;6120762;23;20180;-93
2022/07/09 05:48:21;;;;;;;1.37;1.27;;;;;;;22.35;60.18;98259.13;6049505;23;20160;-93
2022/07/09 05:50:47;;;;;;;1.30;1.20;;;;;;;22.31;59.96;98258.94;6096820;23;20156;-93
2022/07/09 05:53:14;;;;;;;1.37;1.30;;;;;;;22.84;59.81;98342.19;6097035;23;20164;-92
2022/07/09 05:55:41;;;;;;;1.53;1.43;;;;;;;22.20;60.39;98235.50;6096584;23;20159;-92
2022/07/09 05:58:07;;;;;;;1.37;1.27;;;;;;;21.92;60.24;98188.31;6096811;23;20160;-93
2022/07/09 06:00:34;;;;;;;1.20;1.20;;;;;;;22.88;59.89;98363.66;6072883;23;20184;-93
2022/07/09 06:03:01;;;;;;;1.50;1.40;;;;;;;23.24;60.44;98422.31;6072802;23;20180;-93
2022/07/09 06:05:28;;;;;;;1.50;1.40;;;;;;;22.75;60.10;98352.09;6096236;23;20199;-93
2022/07/09 06:07:55;;;;;;;2.73;1.37;;;;;;;21.48;60.05;98125.19;6073691;23;20223;-93
2022/07/09 06:10:22;;;;;;;1.40;1.30;;;;;;;21.99;60.12;98203.13;6096507;23;20164;-92
2022/07/09 06:12:49;;;;;;;2.80;1.40;;;;;;;21.81;60.12;98166.56;6072304;23;20206;-93
2022/07/09 06:15:15;;;;;;;2.23;1.30;;;;;;;23.25;59.87;98408.72;6095729;23;20172;-93
2022/07/09 06:17:42;;;;;;;1.30;1.20;;;;;;;22.26;59.98;98252.81;6096197;23;20163;-93
2022/07/09 06:20:09;;;;;;;1.30;1.20;;;;;;;22.67;59.90;98301.34;6096396;23;20235;-93
2022/07/09 06:22:36;;;;;;;1.40;1.30;;;;;;;21.34;60.16;98082.84;6096206;23;20159;-93
2022/07/09 06:25:03;;;;;;;1.40;1.30;;;;;;;22.67;60.07;98302.22;6096810;23;20172;-93
2022/07/09 06:27:29;;;;;;;1.43;1.33;;;;;;;22.52;60.31;98290.53;6121301;23;20171;-93
2022/07/09 06:29:56;;;;;;;1.40;1.30;;;;;;;22.93;59.68;98346.75;6072627;23;20172;-93
2022/07/09 06:32:23;;;;;;;1.50;1.30;;;;;;;22.22;60.00;98248.38;6072832;23;20168;-93
2022/07/09 06:34:49;;;;;;;1.37;1.23;;;;;;;22.57;60.07;98295.03;6073242;23;20172;-93
2022/07/09 06:37:16;;;;;;;1.47;1.37;;;;;;;22.15;59.87;98219.13;6073036;23;20156;-93
2022/07/09 06:39:45;;;;;;;1.63;1.53;;;;;;;22.36;59.85;98257.44;6096376;23;20172;-93
2022/07/09 06:42:13;;;;;;;1.30;1.20;;;;;;;22.42;60.21;98275.59;6073775;23;20153;-92
2022/07/09 06:44:40;;;;;;;1.30;1.20;;;;;;;22.12;59.89;98205.31;6072608;23;20207;-93
2022/07/09 06:47:06;;;;;;;1.20;1.20;;;;;;;22.87;60.03;98334.59;6096615;23;20160;-93
2022/07/09 06:49:33;;;;;;;1.33;1.23;;;;;;;21.51;59.98;98090.38;6073066;23;20223;-93
2022/07/09 06:52:00;;;;;;;1.20;1.17;;;;;;;22.14;59.63;98216.50;6072966;23;20219;-93
2022/07/09 06:54:26;;;;;;;1.60;1.50;;;;;;;22.20;60.12;98215.03;6049501;23;20176;-93
2022/07/09 06:56:53;;;;;;;1.40;1.30;;;;;;;22.73;59.90;98297.31;6073108;23;20199;-93
2022/07/09 13:09:45;;;;;;;1.10;1.10;;;;;;;23.64;60.61;98246.66;6120792;23;20240;-89
2022/07/09 13:20:14;;;;;;;1.37;1.20;;;;;;;22.40;60.25;97983.56;6028462;23;20229;-89
2022/07/09 13:31:15;;;;;;;1.10;1.10;;;;;;;23.63;60.75;98199.63;6029063;23;20761;-90
2022/07/09 13:34:46;;;;;;;0.97;0.97;;;;;;;23.62;60.57;98190.16;5953123;24;20155;-89
2022/07/09 13:41:19;;;;;;;0.93;0.93;;;;;;;19.30;60.42;97466.63;5975297;24;20280;-89
2022/07/09 13:48:10;;;;;;;1.20;1.20;;;;;;;22.44;60.46;98046.88;5909184;24;20210;-89
2022/07/09 13:51:39;;;;;;;1.20;1.10;;;;;;;23.62;60.67;98182.47;5919827;24;20195;-89
2022/07/09 13:54:06;;;;;;;1.20;1.10;;;;;;;23.22;60.97;98105.06;5965961;24;20211;-92
2022/07/09 13:56:33;;;;;;;1.00;1.00;;;;;;;20.42;60.56;97664.59;5976551;24;20186;-90
2022/07/09 13:58:59;;;;;;;1.00;0.97;;;;;;;19.77;61.18;97557.56;5998609;24;20382;-91
2022/07/09 14:01:26;;;;;;;1.03;1.03;;;;;;;19.11;60.55;97394.53;5956280;24;20170;-90
2022/07/09 14:03:54;;;;;;;0.90;0.90;;;;;;;20.50;60.79;97633.44;5955533;23;20573;-91
2022/07/09 14:06:21;;;;;;;1.03;1.03;;;;;;;19.01;60.08;97372.94;6084277;23;20529;-91
2022/07/09 14:09:08;;;;;;;1.20;1.07;;;;;;;20.60;60.39;97683.16;6083463;23;20215;-90
2022/07/09 14:11:34;;;;;;;1.10;1.10;;;;;;;21.21;60.36;97790.13;6060703;23;20205;-91
2022/07/09 14:14:01;;;;;;;1.03;1.03;;;;;;;17.97;61.20;97195.94;6060253;23;20180;-92
2022/07/09 14:16:28;;;;;;;1.00;1.00;;;;;;;23.41;60.72;98127.91;6059495;23;20227;-92
2022/07/09 14:18:55;;;;;;;1.00;1.00;;;;;;;21.43;60.84;97813.03;6083472;23;20232;-91
2022/07/09 14:21:22;;;;;;;1.10;1.10;;;;;;;19.98;60.44;97525.19;6073596;23;20203;-90
2022/07/09 14:23:49;;;;;;;1.00;1.00;;;;;;;22.11;60.56;97886.16;6087119;23;20183;-90
2022/07/09 14:26:15;;;;;;;1.00;1.00;;;;;;;20.41;60.51;97591.38;6110079;23;20210;-91
2022/07/09 14:28:42;;;;;;;1.03;1.03;;;;;;;21.97;60.56;97895.06;6085442;23;20199;-91
2022/07/09 14:31:09;;;;;;;1.00;1.00;;;;;;;20.18;60.45;97570.16;6089879;23;20199;-91
2022/07/09 14:33:36;;;;;;;1.00;1.00;;;;;;;21.61;60.31;97818.78;6065734;23;20179;-91
2022/07/09 14:36:03;;;;;;;1.00;1.00;;;;;;;21.12;60.52;97709.69;6040720;23;20167;-92
2022/07/09 14:38:29;;;;;;;1.10;1.10;;;;;;;22.26;60.73;97950.66;6116438;23;20175;-92
2022/07/09 14:40:56;;;;;;;1.00;1.00;;;;;;;20.27;60.32;97615.56;6089343;23;20246;-90
2022/07/09 14:43:22;;;;;;;1.10;1.10;;;;;;;22.96;60.42;98070.00;6063740;23;20660;-90
2022/07/09 14:45:49;;;;;;;1.10;1.00;;;;;;;22.48;60.52;97941.16;6088461;23;20199;-90
2022/07/09 14:48:16;;;;;;;1.10;1.10;;;;;;;20.94;60.65;97688.59;6090991;23;20175;-88
2022/07/09 14:50:42;;;;;;;1.10;1.10;;;;;;;19.63;60.34;97446.59;6066409;23;20204;-90
2022/07/09 14:53:09;;;;;;;1.17;1.10;;;;;;;18.60;60.29;97257.69;6065253;23;20200;-91
2022/07/09 14:55:36;;;;;;;0.90;0.90;;;;;;;20.75;60.75;97627.50;6090154;23;20155;-91
2022/07/09 14:58:02;;;;;;;1.07;1.07;;;;;;;19.60;60.54;97482.19;6069120;23;20200;-92
2022/07/09 15:00:29;;;;;;;1.00;1.00;;;;;;;23.25;60.63;98052.22;6044415;23;20341;-94
2022/07/09 15:02:56;;;;;;;1.70;1.00;;;;;;;20.49;60.62;97623.16;6089824;23;20256;-90
2022/07/09 15:05:23;;;;;;;1.10;1.10;;;;;;;19.80;60.08;97476.97;6042798;23;20217;-92
2022/07/09 15:07:50;;;;;;;1.00;1.00;;;;;;;20.50;60.17;97623.22;6067335;23;20164;-91
2022/07/09 15:10:16;;;;;;;1.00;1.00;;;;;;;23.34;60.85;98064.44;6098904;23;20230;-91
2022/07/09 15:12:44;;;;;;;1.10;1.10;;;;;;;18.41;60.22;97202.69;6113122;23;20172;-92
2022/07/09 15:15:10;;;;;;;1.00;1.00;;;;;;;20.65;60.58;97585.44;6114484;23;20176;-93
2022/07/09 15:17:37;;;;;;;1.00;1.00;;;;;;;20.79;60.43;97616.56;6113834;23;20180;-91
2022/07/09 15:20:09;;;;;;;1.17;1.17;;;;;;;19.55;60.50;97404.66;6113521;23;20195;-88
2022/07/09 15:22:36;;;;;;;1.00;1.00;;;;;;;22.41;60.81;97899.94;6086919;23;20193;-90
2022/07/09 15:25:04;;;;;;;0.90;0.90;;;;;;;20.65;60.67;97622.88;6086000;23;20262;-90
2022/07/09 15:27:31;;;;;;;0.90;0.90;;;;;;;22.09;60.67;97834.03;6086773;23;20179;-90
2022/07/09 15:29:59;;;;;;;1.10;1.10;;;;;;;21.23;60.78;97716.91;6063788;23;20227;-91
2022/07/09 15:32:25;;;;;;;1.00;1.00;;;;;;;19.90;60.53;97437.34;6088892;23;20207;-91
2022/07/09 15:34:52;;;;;;;0.90;0.90;;;;;;;20.43;60.07;97533.63;6088897;23;20203;-90
2022/07/09 15:37:19;;;;;;;0.80;0.80;;;;;;;22.07;60.73;97812.63;6088225;23;20191;-89
2022/07/09 15:39:45;;;;;;;1.00;1.00;;;;;;;21.67;60.45;97743.91;6112432;23;20247;-91
2022/07/09 15:42:12;;;;;;;0.90;0.90;;;;;;;20.70;60.38;97565.16;6112070;23;20179;-91
2022/07/09 15:44:39;;;;;;;1.00;1.00;;;;;;;20.45;60.51;97527.72;6111124;23;20444;-91
2022/07/09 15:47:06;;;;;;;1.00;1.00;;;;;;;22.22;60.78;97885.66;6111785;23;20200;-91
2022/07/09 15:49:32;;;;;;;1.10;1.10;;;;;;;21.71;60.58;97738.09;6113783;23;20200;-90
2022/07/09 15:51:59;;;;;;;1.10;1.10;;;;;;;19.44;60.80;97367.72;6114797;23;20211;-92
2022/07/09 15:54:26;;;;;;;1.00;1.00;;;;;;;19.55;60.46;97356.22;6089126;23;20179;-90
2022/07/09 15:56:53;;;;;;;0.80;0.80;;;;;;;20.94;60.44;97599.19;6090839;23;20266;-91
2022/07/09 15:59:20;;;;;;;1.20;1.10;;;;;;;19.45;60.15;97354.19;6092150;23;20199;-91
2022/07/09 16:01:47;;;;;;;1.07;1.07;;;;;;;21.77;60.66;97743.44;6090227;23;20203;-91
2022/07/09 16:04:14;;;;;;;1.00;1.00;;;;;;;20.06;60.44;97511.03;6113841;23;20458;-90
2022/07/09 16:06:41;;;;;;;1.00;1.00;;;;;;;21.20;60.67;97670.78;6090822;23;20195;-92
2022/07/09 16:09:07;;;;;;;1.00;1.00;;;;;;;22.25;60.35;97833.69;6088601;23;20480;-90
2022/07/09 16:14:19;;;;;;;1.00;1.00;;;;;;;19.56;60.43;97347.75;6091799;23;20160;-91
2022/07/09 16:16:46;;;;;;;1.00;1.00;;;;;;;18.50;60.31;97164.03;6064698;23;20179;-90
2022/07/09 16:19:13;;;;;;;1.00;1.00;;;;;;;20.26;60.25;97494.75;6088133;23;20199;-91
2022/07/09 16:21:39;;;;;;;1.03;1.03;;;;;;;23.04;61.21;97941.22;6063369;23;20559;-90
2022/07/09 16:24:07;;;;;;;0.90;0.90;;;;;;;20.44;60.48;97510.69;6087803;23;20191;-91
2022/07/09 16:26:34;;;;;;;1.00;1.00;;;;;;;21.78;60.58;97726.38;6040654;23;20206;-91
2022/07/09 16:29:01;;;;;;;0.80;0.80;;;;;;;20.47;60.72;97497.16;6087691;23;20206;-91
2022/07/09 16:31:27;;;;;;;1.00;1.00;;;;;;;20.63;60.92;97555.56;6088082;23;20278;-90
2022/07/09 16:33:54;;;;;;;0.90;0.90;;;;;;;20.42;60.43;97491.00;6041951;23;20184;-91
2022/07/09 16:36:21;;;;;;;1.03;1.03;;;;;;;20.06;60.78;97498.28;6086786;23;20176;-92
2022/07/09 16:38:48;;;;;;;0.90;0.90;;;;;;;21.96;60.87;97752.56;6065318;23;20190;-89
2022/07/09 16:41:15;;;;;;;0.90;0.90;;;;;;;20.37;60.34;97472.16;6064886;23;20179;-91
2022/07/09 16:43:42;;;;;;;0.90;0.90;;;;;;;18.55;60.07;97159.94;6088523;23;20180;-91
2022/07/09 16:46:08;;;;;;;0.90;0.90;;;;;;;20.79;60.22;97589.34;6089925;23;20199;-91
2022/07/09 16:48:41;;;;;;;0.90;0.90;;;;;;;20.72;60.81;97566.94;6066269;23;20733;-93
2022/07/09 16:51:08;;;;;;;1.00;1.00;;;;;;;20.64;60.65;97570.06;6070890;23;20215;-93
2022/07/09 16:53:35;;;;;;;0.90;0.90;;;;;;;20.33;60.53;97465.19;6068841;23;20164;-90
2022/07/09 16:56:02;;;;;;;0.97;0.97;;;;;;;20.57;60.48;97515.38;6092388;23;20182;-91
2022/07/09 16:58:32;;;;;;;1.10;1.10;;;;;;;20.13;59.35;97509.59;6044435;23;20179;-93
2022/07/09 17:00:59;;;;;;;1.10;1.00;;;;;;;20.50;60.72;97500.69;6068049;23;20196;-91
2022/07/09 17:03:26;;;;;;;0.93;0.93;;;;;;;18.91;60.44;97275.78;6116796;23;20184;-91
2022/07/09 17:05:53;;;;;;;0.97;0.97;;;;;;;20.70;60.42;97539.63;6066977;23;20225;-91
2022/07/09 17:08:21;;;;;;;1.10;1.10;;;;;;;20.34;60.69;97506.06;6092036;23;20179;-91
2022/07/09 17:10:47;;;;;;;1.00;1.00;;;;;;;20.53;60.68;97493.13;6043096;23;20335;-90
2022/07/09 17:13:14;;;;;;;0.90;0.90;;;;;;;21.80;60.52;97710.28;6089168;23;20172;-91
2022/07/09 17:15:41;;;;;;;0.90;0.90;;;;;;;20.24;60.30;97454.69;6089956;23;20262;-89
2022/07/09 17:18:08;;;;;;;1.00;1.00;;;;;;;20.14;60.66;97415.25;6065331;23;20184;-91
2022/07/09 17:20:35;;;;;;;0.90;0.90;;;;;;;20.37;60.14;97457.69;6086693;23;20659;-91
2022/07/09 17:23:01;;;;;;;1.00;1.00;;;;;;;22.82;60.70;97884.16;6063054;23;20180;-90
2022/07/09 17:25:28;;;;;;;0.93;0.93;;;;;;;20.73;60.72;97515.06;6062814;23;20263;-89
2022/07/09 17:27:55;;;;;;;0.97;0.97;;;;;;;20.39;60.61;97468.81;6062228;23;20196;-90
2022/07/09 17:30:22;;;;;;;0.90;0.90;;;;;;;23.51;60.71;97991.41;6062749;23;20258;-91
2022/07/09 17:32:49;;;;;;;0.90;0.90;;;;;;;20.47;60.66;97481.84;6089874;23;20180;-91
2022/07/09 17:35:15;;;;;;;1.00;1.00;;;;;;;20.43;60.95;97457.88;6089553;23;20184;-90
2022/07/09 17:37:42;;;;;;;0.80;0.80;;;;;;;20.30;60.47;97437.00;6064975;23;20168;-92
2022/07/09 17:40:09;;;;;;;1.00;1.00;;;;;;;19.89;60.58;97370.16;6089157;23;20199;-90
2022/07/09 17:42:36;;;;;;;1.00;1.00;;;;;;;20.70;60.60;97502.22;6066711;23;20606;-92
2022/07/09 17:45:03;;;;;;;1.00;1.00;;;;;;;21.05;60.91;97557.84;6088455;23;20204;-91
2022/07/09 17:47:29;;;;;;;0.90;0.90;;;;;;;18.53;60.77;97116.63;6066945;23;20191;-93
2022/07/09 17:49:57;;;;;;;0.97;0.97;;;;;;;19.61;60.65;97334.38;6089668;23;20201;-90
2022/07/09 17:52:24;;;;;;;0.90;0.90;;;;;;;22.26;60.80;97766.31;6043616;23;20194;-89
2022/07/09 17:54:50;;;;;;;0.80;0.80;;;;;;;18.51;60.80;97107.22;6091509;23;20167;-91
2022/07/09 17:57:17;;;;;;;1.00;1.00;;;;;;;21.27;61.30;97613.06;6073608;23;20203;-92
2022/07/09 17:59:43;;;;;;;1.10;1.10;;;;;;;19.67;60.77;97316.75;6049829;23;20203;-93
2022/07/09 18:02:10;;;;;;;1.00;1.00;;;;;;;19.38;60.50;97253.72;6049294;23;20687;-90
2022/07/09 18:04:37;;;;;;;1.00;1.00;;;;;;;20.63;60.65;97471.31;6072458;23;20152;-91
2022/07/09 18:07:04;;;;;;;0.90;0.90;;;;;;;22.20;60.71;97741.38;6095087;23;20230;-93
2022/07/09 18:09:31;;;;;;;1.00;1.00;;;;;;;21.31;61.04;97614.91;6049560;23;20196;-93
2022/07/09 18:11:57;;;;;;;0.80;0.80;;;;;;;22.37;60.89;97795.66;6072572;23;20144;-93
2022/07/09 18:14:30;;;;;;;0.90;0.90;;;;;;;20.56;61.20;97490.66;6097452;23;20183;-93
2022/07/09 18:16:57;;;;;;;1.00;1.00;;;;;;;20.65;60.55;97475.63;6072571;23;20168;-91
2022/07/09 18:19:24;;;;;;;1.00;1.00;;;;;;;20.60;60.65;97496.75;6072880;23;20209;-93
2022/07/09 18:21:50;;;;;;;0.83;0.83;;;;;;;21.23;61.13;97609.53;6072264;23;20191;-92
2022/07/09 18:24:17;;;;;;;0.90;0.90;;;;;;;20.62;60.56;97464.44;6095912;23;20191;-92
2022/07/09 18:26:44;;;;;;;0.90;0.90;;;;;;;20.70;60.53;97475.78;6071423;23;20195;-92
2022/07/09 18:29:13;;;;;;;0.93;0.87;;;;;;;21.04;60.15;97598.69;6072049;23;20183;-90
2022/07/09 18:31:40;;;;;;;0.97;0.97;;;;;;;23.35;60.73;97935.34;6072516;23;20160;-91
2022/07/09 18:34:06;;;;;;;0.90;0.90;;;;;;;21.79;60.69;97707.69;6096422;23;20187;-92
2022/07/09 18:36:33;;;;;;;1.00;1.00;;;;;;;19.72;60.48;97309.25;6072343;23;20171;-94
2022/07/09 18:39:01;;;;;;;1.00;1.00;;;;;;;20.74;60.47;97511.69;6072804;23;20174;-91
2022/07/09 18:41:28;;;;;;;0.93;0.93;;;;;;;20.37;60.87;97433.88;6072930;23;20159;-91
2022/07/09 18:43:55;;;;;;;1.10;1.10;;;;;;;20.65;61.30;97484.97;6096130;23;20164;-91
2022/07/09 18:46:22;;;;;;;0.90;0.90;;;;;;;20.29;59.77;97448.94;6072378;23;20191;-92
2022/07/09 18:48:48;;;;;;;1.00;1.00;;;;;;;20.21;60.75;97378.03;6072654;23;20164;-91
2022/07/09 18:51:15;;;;;;;1.10;1.10;;;;;;;19.71;60.84;97300.72;6097231;23;20191;-91
2022/07/09 18:53:42;;;;;;;0.90;0.90;;;;;;;20.41;60.86;97422.91;6096586;23;20195;-90
2022/07/09 18:56:09;;;;;;;1.00;1.00;;;;;;;20.43;60.79;97465.53;6073279;23;20152;-92
2022/07/09 18:58:36;;;;;;;1.00;1.00;;;;;;;21.80;60.94;97700.06;6073048;23;20183;-92
2022/07/09 21:07:53;;;;;;;1.00;1.00;;;;;;;20.88;60.99;97576.00;6111660;23;20420;-93
2022/07/09 21:10:20;;;;;;;0.90;0.90;;;;;;;22.23;60.98;97785.00;6098582;23;20184;-93
2022/07/09 21:12:50;;;;;;;0.90;0.90;;;;;;;21.87;61.15;97707.09;6075409;23;20159;-95
2022/07/09 21:15:18;;;;;;;1.00;1.00;;;;;;;21.33;61.17;97628.59;6075083;23;20152;-93
2022/07/09 21:20:32;;;;;;;0.90;0.90;;;;;;;21.34;60.79;97620.97;6082586;23;20231;-93
2022/07/09 21:23:01;;;;;;;0.90;0.90;;;;;;;20.88;60.80;97553.00;6074886;23;20369;-94
2022/07/09 21:25:30;;;;;;;0.97;0.97;;;;;;;21.28;60.75;97613.13;6076106;23;20191;-94